Flugplatz Mindelheim-Mattsies

Für EDMN sind keine METAR/TAF Berichte vorhanden.
Es werden die Flugwettermeldungen vom Flugplatz Memmingen Allgau in 24 km Entfernung angezeigt.

Bericht für EDJA

vom 28.01. um 16:50 UTC

Wind 15 kt aus 230°

Sichtweite 10 km oder mehr

gering bewölkt in 3400 ft

Temperatur 2.0°C

Taupunkt -1.0°C

Luftfeuchtigkeit 80%

Luftdruck 1004 hPa

EDJA 281650Z 23015KT 9999 FEW034 02/M01 Q1004

Prognose für EDJA

vom 28.01. um 00:00 UTC

Zwischen 00:00 UTC und 00:00 UTC

Wind 20 kt aus 240° in Böen 35 kt

Sichtweite 10 km oder mehr

gering bewölkt in 2000 ft


Zwischen 00:00 UTC und 00:00 UTC zeitweise

Sichtweite 3000 m

Schneeschauer

aufgelockert bewölkt in 700 ft

aufgebrochene Bewölkung in 1200 ft


Zwischen 00:00 UTC und 00:00 UTC zeitweise mit einer Wahrscheinlichkeit von 30%

Wind 25 kt aus 250° in Böen 45 kt

Sichtweite 1000 m

Code: TSSN

aufgelockert bewölkt in 400 ft

aufgebrochene Bewölkung in 1000 ft


Zwischen 00:00 und 00:00 UTC übergehend zu

Wind 15 kt aus 240° in Böen 25 kt

Sichtweite 10 km oder mehr

gering bewölkt in 2000 ft

TAF EDJA 281400Z 2815/2824 24020G35KT 9999 FEW020 TEMPO 2815/2819 3000 SHSN SCT007 BKN012TCU PROB30 TEMPO 2815/2819 25025G45KT 1000 TSSN SCT004 BKN010CB BECMG 2820/2822 24015G25KT
Impressum